createdAt,value
2017-08-31T00:02:08.862Z,89.25
2017-08-31T00:04:34.871Z,88.93
2017-08-31T00:07:00.646Z,88.39
2017-08-31T00:09:26.418Z,88.82
2017-08-31T00:11:52.198Z,89.22
2017-08-31T00:14:17.990Z,88.07
2017-08-31T00:16:43.751Z,85.97
2017-08-31T00:19:09.588Z,87.51
2017-08-31T00:21:35.344Z,87.28
2017-08-31T00:24:01.116Z,88.04
2017-08-31T00:26:26.902Z,87.72
2017-08-31T00:28:52.691Z,88.01
2017-08-31T00:31:19.139Z,87.29
2017-08-31T00:33:44.899Z,86.82
2017-08-31T00:36:10.667Z,85.95
2017-08-31T00:38:36.454Z,85.67
2017-08-31T00:41:02.264Z,86.81
2017-08-31T00:43:28.023Z,89.08
2017-08-31T00:45:53.843Z,90.04
2017-08-31T00:48:19.635Z,90.22
2017-08-31T00:50:45.434Z,89.89
2017-08-31T00:53:11.235Z,89.13
2017-08-31T00:55:37.071Z,89.10
2017-08-31T00:58:02.912Z,89.49
2017-08-31T01:00:28.684Z,88.19
2017-08-31T01:02:54.466Z,86.19
2017-08-31T01:05:20.272Z,86.58
2017-08-31T01:07:46.100Z,86.39
2017-08-31T01:10:11.883Z,86.39
2017-08-31T01:12:37.643Z,86.53
2017-08-31T01:15:03.503Z,86.84
2017-08-31T01:17:29.399Z,87.36
2017-08-31T01:19:55.179Z,87.91
2017-08-31T01:22:20.970Z,87.48
2017-08-31T01:24:46.858Z,88.92
2017-08-31T01:27:12.671Z,87.78
2017-08-31T01:29:38.479Z,88.55
2017-08-31T01:32:04.247Z,87.74
2017-08-31T01:34:30.011Z,87.54
2017-08-31T01:36:55.831Z,86.87
2017-08-31T01:39:21.627Z,86.97
2017-08-31T01:41:47.463Z,86.67
2017-08-31T01:44:13.231Z,87.36
2017-08-31T01:46:39.026Z,86.68
2017-08-31T01:49:04.830Z,86.00
2017-08-31T01:51:30.603Z,85.50
2017-08-31T01:53:56.440Z,85.10
2017-08-31T01:56:22.287Z,85.07
2017-08-31T01:58:48.079Z,84.60
2017-08-31T02:01:13.886Z,84.92
2017-08-31T02:03:39.647Z,84.68
2017-08-31T02:06:05.459Z,82.62
2017-08-31T02:08:31.349Z,82.16
2017-08-31T02:10:57.142Z,82.95
2017-08-31T02:13:22.902Z,83.91
2017-08-31T02:15:48.714Z,81.07
2017-08-31T02:18:15.155Z,81.76
2017-08-31T02:20:40.927Z,82.13
2017-08-31T02:23:06.730Z,81.12
2017-08-31T02:25:32.603Z,79.78
2017-08-31T02:27:58.379Z,79.54
2017-08-31T02:30:24.176Z,79.27
2017-08-31T02:32:49.975Z,79.87
2017-08-31T02:35:15.767Z,80.41
2017-08-31T02:37:41.526Z,81.01
2017-08-31T02:40:07.311Z,81.99
2017-08-31T02:42:33.096Z,81.24
2017-08-31T02:44:58.913Z,81.73
2017-08-31T02:47:24.687Z,82.43
2017-08-31T02:49:50.447Z,81.50
2017-08-31T02:52:16.223Z,81.49
2017-08-31T02:54:42.006Z,81.54
2017-08-31T02:57:07.767Z,81.31
2017-08-31T02:59:33.543Z,81.42
2017-08-31T03:01:59.335Z,82.52
2017-08-31T03:04:25.135Z,82.00
2017-08-31T03:06:51.006Z,82.32
2017-08-31T03:09:16.780Z,84.88
2017-08-31T03:11:42.544Z,85.41
2017-08-31T03:14:08.328Z,86.59
2017-08-31T03:16:34.091Z,86.98
2017-08-31T03:18:59.876Z,82.50
2017-08-31T03:21:25.658Z,80.33
2017-08-31T03:23:51.475Z,82.29
2017-08-31T03:26:17.282Z,82.18
2017-08-31T03:28:43.041Z,81.25
2017-08-31T03:31:08.809Z,82.45
2017-08-31T03:33:34.699Z,82.58
2017-08-31T03:36:00.454Z,82.36
2017-08-31T03:38:26.259Z,80.34
2017-08-31T03:40:52.012Z,81.09
2017-08-31T03:43:17.763Z,80.82
2017-08-31T03:45:43.539Z,81.44
2017-08-31T03:48:09.283Z,80.16
2017-08-31T03:50:35.035Z,80.85
2017-08-31T03:53:00.823Z,81.35
2017-08-31T03:55:26.571Z,81.87
2017-08-31T03:57:52.335Z,81.65
2017-08-31T04:00:18.155Z,81.62
2017-08-31T04:02:43.910Z,80.78
2017-08-31T04:05:09.714Z,81.44
2017-08-31T04:07:35.470Z,81.28
2017-08-31T04:10:01.364Z,80.46
2017-08-31T04:12:27.168Z,81.09
2017-08-31T04:14:52.979Z,81.12
2017-08-31T04:17:18.832Z,81.39
2017-08-31T04:19:44.618Z,82.12
2017-08-31T04:22:10.371Z,82.73
2017-08-31T04:24:36.151Z,82.40
2017-08-31T04:27:01.946Z,83.61
2017-08-31T04:29:27.724Z,85.28
2017-08-31T04:31:53.528Z,86.52
2017-08-31T04:34:19.307Z,87.27
2017-08-31T04:36:45.071Z,86.46
2017-08-31T04:39:10.852Z,87.79
2017-08-31T04:41:36.623Z,88.50
2017-08-31T04:44:02.391Z,90.01
2017-08-31T04:46:28.167Z,86.68
2017-08-31T04:48:53.928Z,87.03
2017-08-31T04:51:19.815Z,86.98
2017-08-31T04:53:45.590Z,87.53
2017-08-31T04:56:11.934Z,88.63
2017-08-31T04:58:37.703Z,88.67
2017-08-31T05:01:03.483Z,87.61
2017-08-31T05:03:29.272Z,88.42
2017-08-31T05:05:55.079Z,87.69
2017-08-31T05:08:20.851Z,88.05
2017-08-31T05:10:46.641Z,87.49
2017-08-31T05:13:12.448Z,88.39
2017-08-31T05:15:38.219Z,90.04
2017-08-31T05:18:04.022Z,89.26
2017-08-31T05:20:29.826Z,89.25
2017-08-31T05:22:55.660Z,87.75
2017-08-31T05:25:21.522Z,87.72
2017-08-31T05:27:47.383Z,88.20
2017-08-31T05:30:13.214Z,89.32
2017-08-31T05:32:39.346Z,89.58
2017-08-31T05:35:05.147Z,88.89
2017-08-31T05:37:30.932Z,88.86
2017-08-31T05:39:56.738Z,88.29
2017-08-31T05:42:22.515Z,89.00
2017-08-31T05:44:48.326Z,90.12
2017-08-31T05:47:14.139Z,90.59
2017-08-31T05:49:39.918Z,91.79
2017-08-31T05:52:05.691Z,92.11
2017-08-31T05:54:31.567Z,92.15
2017-08-31T05:56:57.351Z,91.83
2017-08-31T05:59:23.119Z,91.86
2017-08-31T06:01:48.931Z,91.85
2017-08-31T06:04:14.727Z,92.48
2017-08-31T06:06:40.489Z,93.56
2017-08-31T06:09:06.298Z,93.01
2017-08-31T06:11:32.080Z,93.06
2017-08-31T06:13:57.931Z,92.56
2017-08-31T06:16:23.790Z,91.35
2017-08-31T06:18:49.559Z,90.98
2017-08-31T06:21:15.343Z,90.46
2017-08-31T06:23:41.219Z,88.93
2017-08-31T06:26:07.024Z,91.08
2017-08-31T06:28:32.819Z,91.15
2017-08-31T06:30:58.683Z,91.34
2017-08-31T06:33:24.482Z,90.87
2017-08-31T06:35:50.252Z,90.76
2017-08-31T06:38:16.079Z,91.28
2017-08-31T06:40:41.908Z,90.67
2017-08-31T06:43:07.668Z,90.55
2017-08-31T06:45:33.454Z,89.85
2017-08-31T06:47:59.251Z,90.43
2017-08-31T06:50:25.022Z,88.61
2017-08-31T06:52:50.843Z,90.07
2017-08-31T06:55:16.599Z,90.55
2017-08-31T06:57:42.405Z,88.81
2017-08-31T07:00:08.150Z,88.71
2017-08-31T07:02:33.938Z,90.20
2017-08-31T07:04:59.727Z,89.73
2017-08-31T07:07:25.490Z,88.71
2017-08-31T07:09:51.247Z,88.67
2017-08-31T07:12:17.064Z,86.37
2017-08-31T07:14:42.819Z,84.49
2017-08-31T07:17:08.584Z,85.55
2017-08-31T07:19:34.367Z,85.23
2017-08-31T07:22:00.150Z,86.67
2017-08-31T07:24:25.920Z,87.68
2017-08-31T07:26:51.735Z,86.67
2017-08-31T07:29:17.521Z,84.28
2017-08-31T07:31:43.283Z,83.79
2017-08-31T07:34:09.082Z,84.91
2017-08-31T07:36:34.868Z,83.17
2017-08-31T07:39:00.632Z,81.69
2017-08-31T07:41:26.451Z,83.47
2017-08-31T07:43:52.218Z,84.80
2017-08-31T07:46:17.979Z,86.11
2017-08-31T07:48:43.767Z,86.24
2017-08-31T07:51:09.559Z,86.24
2017-08-31T07:53:35.342Z,87.13
2017-08-31T07:56:01.151Z,87.56
2017-08-31T07:58:26.924Z,85.65
2017-08-31T08:00:52.683Z,85.61
2017-08-31T08:03:18.488Z,84.76
2017-08-31T08:05:44.294Z,84.46
2017-08-31T08:08:10.063Z,85.71
2017-08-31T08:10:35.823Z,84.01
2017-08-31T08:13:01.611Z,84.47
2017-08-31T08:15:27.367Z,83.89
2017-08-31T08:17:53.150Z,86.80
2017-08-31T08:20:19.006Z,83.38
2017-08-31T08:22:44.796Z,83.02
2017-08-31T08:25:10.544Z,84.52
2017-08-31T08:27:36.295Z,86.66
2017-08-31T08:30:02.096Z,84.89
2017-08-31T08:32:27.875Z,83.85
2017-08-31T08:34:53.711Z,85.83
2017-08-31T08:37:19.476Z,85.78
2017-08-31T08:39:45.330Z,83.65
2017-08-31T08:42:11.077Z,82.79
2017-08-31T08:44:36.924Z,83.54
2017-08-31T08:47:02.706Z,85.98
2017-08-31T08:49:28.481Z,86.52
2017-08-31T08:51:54.291Z,87.30
2017-08-31T08:54:20.034Z,88.34
2017-08-31T08:56:45.784Z,89.41
2017-08-31T08:59:11.567Z,89.47
2017-08-31T09:01:37.315Z,88.98
2017-08-31T09:04:03.098Z,89.52
2017-08-31T09:06:28.885Z,88.01
2017-08-31T09:08:54.678Z,87.85
2017-08-31T09:11:20.424Z,87.80
2017-08-31T09:13:46.315Z,88.05
2017-08-31T09:16:12.104Z,87.35
2017-08-31T09:18:37.855Z,87.82
2017-08-31T09:21:03.623Z,87.28
2017-08-31T09:23:29.417Z,85.11
2017-08-31T09:25:55.182Z,83.44
2017-08-31T09:28:20.944Z,83.35
2017-08-31T09:30:46.732Z,84.20
2017-08-31T09:33:12.547Z,83.59
2017-08-31T09:35:38.309Z,83.23
2017-08-31T09:38:04.134Z,82.78
2017-08-31T09:40:29.907Z,82.35
2017-08-31T09:42:55.671Z,82.81
2017-08-31T09:45:21.450Z,84.08
2017-08-31T09:47:47.219Z,82.73
2017-08-31T09:50:12.992Z,83.28
2017-08-31T09:52:38.795Z,79.58
2017-08-31T09:55:04.659Z,80.01
2017-08-31T09:57:30.426Z,81.21
2017-08-31T09:59:56.220Z,82.56
2017-08-31T10:02:22.004Z,80.87
2017-08-31T10:04:47.779Z,80.46
2017-08-31T10:07:13.574Z,80.42
2017-08-31T10:09:40.448Z,81.48
2017-08-31T10:12:06.227Z,81.08
2017-08-31T10:14:32.067Z,82.91
2017-08-31T10:16:57.887Z,80.92
2017-08-31T10:19:23.691Z,82.20
2017-08-31T10:21:49.452Z,80.63
2017-08-31T10:24:15.235Z,81.56
2017-08-31T10:26:41.038Z,81.50
2017-08-31T10:29:06.812Z,81.19
2017-08-31T10:31:32.634Z,80.40
2017-08-31T10:33:58.463Z,80.98
2017-08-31T10:36:24.232Z,81.80
2017-08-31T10:38:50.031Z,81.45
2017-08-31T10:41:15.797Z,83.11
2017-08-31T10:43:41.651Z,81.84
2017-08-31T10:46:07.456Z,80.44
2017-08-31T10:48:33.231Z,81.21
2017-08-31T10:50:59.030Z,79.40
2017-08-31T10:53:24.837Z,80.19
2017-08-31T10:55:50.655Z,80.05
2017-08-31T10:58:16.536Z,79.52
2017-08-31T11:00:42.315Z,78.97
2017-08-31T11:03:08.102Z,79.99
2017-08-31T11:05:33.886Z,80.24
2017-08-31T11:07:59.678Z,80.28
2017-08-31T11:10:25.457Z,80.14
2017-08-31T11:12:51.261Z,80.79
2017-08-31T11:15:17.071Z,81.04
2017-08-31T11:17:43.027Z,81.97
2017-08-31T11:20:08.803Z,81.51
2017-08-31T11:22:34.581Z,80.63
2017-08-31T11:25:00.388Z,80.05
2017-08-31T11:27:26.337Z,78.96
2017-08-31T11:29:52.081Z,79.72
2017-08-31T11:32:17.865Z,79.41
2017-08-31T11:34:43.745Z,79.53
2017-08-31T11:37:09.441Z,80.10
2017-08-31T11:39:35.205Z,80.17
2017-08-31T11:42:00.954Z,79.42
2017-08-31T11:44:26.750Z,79.90
2017-08-31T11:46:52.550Z,79.61
2017-08-31T11:49:18.312Z,78.74
2017-08-31T11:51:44.111Z,77.69
2017-08-31T11:54:09.884Z,77.89
2017-08-31T11:56:35.639Z,77.94
2017-08-31T11:59:01.433Z,77.52
2017-08-31T12:01:27.193Z,77.81
2017-08-31T12:03:52.946Z,78.19
2017-08-31T12:06:18.747Z,77.60
2017-08-31T12:08:44.547Z,77.19
2017-08-31T12:11:10.319Z,74.98
2017-08-31T12:13:36.139Z,73.61
2017-08-31T12:16:01.900Z,72.05
2017-08-31T12:18:27.716Z,72.61
2017-08-31T12:20:53.583Z,70.63
2017-08-31T12:25:45.035Z,72.54
2017-08-31T12:28:10.848Z,73.57
2017-08-31T12:30:36.639Z,73.80
2017-08-31T12:33:02.402Z,75.14
2017-08-31T12:35:28.199Z,75.90
2017-08-31T12:37:53.948Z,75.04
2017-08-31T12:40:19.839Z,76.51
2017-08-31T12:42:45.654Z,76.65
2017-08-31T12:45:11.475Z,77.77
2017-08-31T12:47:37.294Z,77.89
2017-08-31T12:50:03.083Z,78.03
2017-08-31T12:52:28.842Z,78.60
2017-08-31T12:54:56.058Z,78.70
2017-08-31T12:57:21.868Z,79.50
2017-08-31T12:59:47.617Z,79.91
2017-08-31T13:02:13.508Z,80.67
2017-08-31T13:04:39.282Z,81.43
2017-08-31T13:07:05.091Z,82.92
2017-08-31T13:09:30.843Z,84.30
2017-08-31T13:11:56.676Z,84.74
2017-08-31T13:14:22.483Z,85.35
2017-08-31T13:16:48.279Z,86.15
2017-08-31T13:19:14.061Z,85.01
2017-08-31T13:21:39.814Z,85.93
2017-08-31T13:24:05.591Z,87.08
2017-08-31T13:26:31.363Z,86.58
2017-08-31T13:28:57.165Z,86.22
2017-08-31T13:31:22.965Z,86.40
2017-08-31T13:33:48.718Z,87.70
2017-08-31T13:36:14.484Z,87.50
2017-08-31T13:38:40.366Z,87.82
2017-08-31T13:41:06.129Z,88.04
2017-08-31T13:43:31.918Z,86.93
2017-08-31T13:45:57.683Z,86.17
2017-08-31T13:48:23.483Z,86.99
2017-08-31T13:50:49.294Z,86.75
2017-08-31T13:53:15.043Z,87.93
2017-08-31T13:55:40.830Z,87.55
2017-08-31T13:58:06.611Z,87.84
2017-08-31T14:00:32.375Z,88.02
2017-08-31T14:02:58.120Z,87.38
2017-08-31T14:05:24.439Z,87.80
2017-08-31T14:07:50.671Z,87.57
2017-08-31T14:10:16.907Z,88.14
2017-08-31T14:12:44.167Z,87.75
2017-08-31T14:15:10.398Z,88.38
2017-08-31T14:17:36.735Z,88.56
2017-08-31T14:20:02.966Z,88.22
2017-08-31T14:22:29.103Z,87.37
2017-08-31T14:24:55.335Z,87.06
2017-08-31T14:27:21.466Z,88.89
2017-08-31T14:29:47.231Z,87.44
2017-08-31T14:32:13.088Z,86.88
2017-08-31T14:34:38.930Z,86.96
2017-08-31T14:37:04.783Z,85.94
2017-08-31T14:39:30.595Z,86.38
2017-08-31T14:41:56.399Z,87.24
2017-08-31T14:44:22.204Z,85.94
2017-08-31T14:46:47.967Z,84.71
2017-08-31T14:49:13.764Z,84.15
2017-08-31T14:51:39.528Z,84.21
2017-08-31T14:54:05.299Z,84.65
2017-08-31T14:56:31.107Z,84.22
2017-08-31T14:58:56.991Z,84.52
2017-08-31T15:01:22.780Z,84.40
2017-08-31T15:03:48.555Z,84.81
2017-08-31T15:06:14.341Z,86.39
2017-08-31T15:08:40.168Z,86.65
2017-08-31T15:11:06.045Z,84.32
2017-08-31T15:13:31.882Z,86.87
2017-08-31T15:15:57.644Z,86.21
2017-08-31T15:18:23.507Z,87.82
2017-08-31T15:20:49.306Z,87.10
2017-08-31T15:23:15.138Z,87.98
2017-08-31T15:25:40.903Z,86.27
2017-08-31T15:28:06.705Z,87.01
2017-08-31T15:30:32.598Z,87.89
2017-08-31T15:32:58.362Z,86.62
2017-08-31T15:35:24.159Z,86.68
2017-08-31T15:37:50.039Z,86.27
2017-08-31T15:40:15.807Z,87.51
2017-08-31T15:42:41.655Z,85.17
2017-08-31T15:45:07.483Z,86.81
2017-08-31T15:47:33.252Z,86.41
2017-08-31T15:49:59.015Z,86.81
2017-08-31T15:52:24.792Z,85.11
2017-08-31T15:54:50.563Z,86.32
2017-08-31T15:57:16.351Z,85.04
2017-08-31T15:59:42.181Z,85.53
2017-08-31T16:02:07.964Z,85.12
2017-08-31T16:04:33.734Z,85.68
2017-08-31T16:06:59.539Z,85.59
2017-08-31T16:09:25.314Z,85.37
2017-08-31T16:11:51.059Z,84.50
2017-08-31T16:14:16.854Z,84.31
2017-08-31T16:16:42.647Z,84.60
2017-08-31T16:19:08.415Z,83.46
2017-08-31T16:21:34.175Z,82.50
2017-08-31T16:23:59.976Z,80.93
2017-08-31T16:26:25.747Z,82.10
2017-08-31T16:28:51.567Z,81.85
2017-08-31T16:31:17.360Z,82.85
2017-08-31T16:33:43.147Z,83.10
2017-08-31T16:36:08.946Z,83.47
2017-08-31T16:38:34.740Z,82.86
2017-08-31T16:41:00.522Z,84.17
2017-08-31T16:43:26.323Z,83.78
2017-08-31T16:45:52.101Z,84.38
2017-08-31T16:48:17.896Z,85.11
2017-08-31T16:50:43.695Z,84.47
2017-08-31T16:53:09.490Z,84.10
2017-08-31T16:55:35.258Z,83.82
2017-08-31T16:58:01.018Z,83.81
2017-08-31T17:00:26.868Z,83.93
2017-08-31T17:02:52.655Z,84.90
2017-08-31T17:05:18.442Z,83.68
2017-08-31T17:07:44.217Z,84.20
2017-08-31T17:10:09.976Z,82.95
2017-08-31T17:12:35.774Z,83.32
2017-08-31T17:15:01.663Z,85.15
2017-08-31T17:17:27.439Z,84.49
2017-08-31T17:19:53.331Z,84.78
2017-08-31T17:22:19.103Z,85.25
2017-08-31T17:24:44.850Z,85.62
2017-08-31T17:27:10.693Z,85.63
2017-08-31T17:29:36.449Z,84.79
2017-08-31T17:32:02.224Z,85.11
2017-08-31T17:34:28.051Z,85.58
2017-08-31T17:36:53.839Z,85.92
2017-08-31T17:39:19.635Z,85.87
2017-08-31T17:41:45.390Z,85.48
2017-08-31T17:44:11.262Z,87.22
2017-08-31T17:46:37.043Z,86.60
2017-08-31T17:49:02.811Z,86.46
2017-08-31T17:51:28.595Z,86.21
2017-08-31T17:53:54.351Z,86.44
2017-08-31T17:56:20.143Z,87.00
2017-08-31T17:58:45.891Z,86.06
2017-08-31T18:01:11.652Z,86.56
2017-08-31T18:03:37.439Z,87.61
2017-08-31T18:06:03.250Z,88.51
2017-08-31T18:08:29.031Z,87.14
2017-08-31T18:10:54.894Z,88.04
2017-08-31T18:13:20.666Z,87.26
2017-08-31T18:15:46.450Z,87.31
2017-08-31T18:18:12.315Z,88.40
2017-08-31T18:20:38.073Z,87.96
2017-08-31T18:23:03.851Z,87.88
2017-08-31T18:25:29.634Z,87.83
2017-08-31T18:27:55.394Z,87.52
2017-08-31T18:30:21.160Z,88.14
2017-08-31T18:32:46.983Z,87.54
2017-08-31T18:35:12.739Z,87.16
2017-08-31T18:37:38.537Z,86.84
2017-08-31T18:40:04.302Z,87.33
2017-08-31T18:42:30.083Z,86.51
2017-08-31T18:44:55.843Z,86.76
2017-08-31T18:47:22.199Z,86.73
2017-08-31T18:49:48.028Z,85.89
2017-08-31T18:52:13.777Z,85.10
2017-08-31T18:54:39.589Z,85.27
2017-08-31T18:57:05.338Z,85.79
2017-08-31T18:59:31.107Z,85.65
2017-08-31T19:01:56.907Z,85.61
2017-08-31T19:04:22.671Z,86.94
2017-08-31T19:06:48.431Z,85.90
2017-08-31T19:09:14.223Z,85.26
2017-08-31T19:11:40.048Z,85.81
2017-08-31T19:14:05.798Z,84.85
2017-08-31T19:16:31.572Z,85.08
2017-08-31T19:18:57.355Z,84.97
2017-08-31T19:21:23.211Z,86.58
2017-08-31T19:23:49.012Z,84.75
2017-08-31T19:26:14.824Z,83.72
2017-08-31T19:28:41.392Z,84.66
2017-08-31T19:31:07.154Z,85.13
2017-08-31T19:33:33.001Z,85.54
2017-08-31T19:35:58.765Z,86.11
2017-08-31T19:38:24.611Z,87.56
2017-08-31T19:40:50.411Z,85.87
2017-08-31T19:43:16.200Z,85.51
2017-08-31T19:45:42.035Z,84.51
2017-08-31T19:48:07.794Z,85.97
2017-08-31T19:50:33.543Z,87.10
2017-08-31T19:52:59.390Z,85.20
2017-08-31T19:55:25.295Z,84.13
2017-08-31T19:57:51.118Z,83.95
2017-08-31T20:00:16.982Z,85.74
2017-08-31T20:02:42.740Z,85.88
2017-08-31T20:05:08.575Z,86.52
2017-08-31T20:07:34.387Z,86.08
2017-08-31T20:10:00.263Z,86.89
2017-08-31T20:12:26.023Z,86.69
2017-08-31T20:14:51.904Z,85.91
2017-08-31T20:17:17.734Z,83.53
2017-08-31T20:19:43.484Z,83.67
2017-08-31T20:22:09.238Z,82.91
2017-08-31T20:24:35.031Z,82.04
2017-08-31T20:27:00.858Z,82.88
2017-08-31T20:29:26.612Z,83.38
2017-08-31T20:31:52.405Z,82.72
2017-08-31T20:34:18.161Z,82.91
2017-08-31T20:36:44.002Z,85.42
2017-08-31T20:39:09.779Z,84.03
2017-08-31T20:41:35.540Z,83.70
2017-08-31T20:44:01.328Z,82.20
2017-08-31T20:46:27.095Z,82.46
2017-08-31T20:48:52.876Z,85.48
2017-08-31T20:51:18.635Z,85.69
2017-08-31T20:53:44.428Z,85.41
2017-08-31T20:56:10.300Z,85.49
2017-08-31T20:58:36.093Z,86.87
2017-08-31T21:01:01.983Z,86.66
2017-08-31T21:03:27.762Z,85.09
2017-08-31T21:05:53.607Z,86.91
2017-08-31T21:08:19.397Z,84.00
2017-08-31T21:10:45.235Z,85.75
2017-08-31T21:13:10.984Z,84.04
2017-08-31T21:15:36.798Z,85.69
2017-08-31T21:18:02.559Z,84.57
2017-08-31T21:20:28.308Z,83.83
2017-08-31T21:22:54.231Z,83.58
2017-08-31T21:25:19.991Z,84.76
2017-08-31T21:27:45.750Z,85.79
2017-08-31T21:30:11.580Z,85.05
2017-08-31T21:32:37.362Z,82.79
2017-08-31T21:35:03.111Z,85.06
2017-08-31T21:37:28.931Z,84.16
2017-08-31T21:39:54.678Z,85.67
2017-08-31T21:42:20.480Z,86.58
2017-08-31T21:44:46.307Z,85.01
2017-08-31T21:47:12.054Z,84.88
2017-08-31T21:49:37.811Z,85.69
2017-08-31T21:52:03.615Z,84.36
2017-08-31T21:54:29.372Z,84.53
2017-08-31T21:56:55.126Z,85.20
2017-08-31T21:59:20.912Z,85.15
2017-08-31T22:01:46.711Z,85.95
2017-08-31T22:04:12.472Z,84.33
2017-08-31T22:06:38.245Z,84.67
2017-08-31T22:09:04.059Z,83.58
2017-08-31T22:11:29.835Z,84.30
2017-08-31T22:13:55.599Z,84.09
2017-08-31T22:16:21.394Z,84.37
2017-08-31T22:18:47.159Z,84.04
2017-08-31T22:21:12.962Z,85.52
2017-08-31T22:23:38.783Z,84.71
2017-08-31T22:26:04.575Z,86.15
2017-08-31T22:28:30.334Z,85.67
2017-08-31T22:30:56.083Z,85.58
2017-08-31T22:33:22.844Z,85.29
2017-08-31T22:35:48.747Z,84.76
2017-08-31T22:38:14.516Z,84.30
2017-08-31T22:40:40.383Z,85.58
2017-08-31T22:43:06.179Z,85.68
2017-08-31T22:45:31.944Z,86.51
2017-08-31T22:47:57.732Z,86.63
2017-08-31T22:50:23.611Z,87.09
2017-08-31T22:52:49.377Z,87.55
2017-08-31T22:55:17.255Z,87.64
2017-08-31T22:57:55.379Z,87.64
2017-08-31T23:00:21.151Z,88.09
2017-08-31T23:02:46.935Z,88.65
2017-08-31T23:05:12.700Z,89.56
2017-08-31T23:07:38.461Z,90.22
2017-08-31T23:10:04.307Z,89.95
2017-08-31T23:12:30.096Z,89.84
2017-08-31T23:14:55.912Z,89.24
2017-08-31T23:17:21.707Z,89.54
2017-08-31T23:19:47.495Z,90.30
2017-08-31T23:22:13.268Z,90.43
2017-08-31T23:24:39.055Z,90.18
2017-08-31T23:27:04.836Z,90.26
2017-08-31T23:29:30.684Z,90.77
2017-08-31T23:31:56.511Z,90.42
2017-08-31T23:34:22.272Z,90.78
2017-08-31T23:36:48.107Z,91.28
2017-08-31T23:39:13.883Z,91.00
2017-08-31T23:41:39.639Z,91.14
2017-08-31T23:44:05.420Z,90.07
2017-08-31T23:46:31.219Z,90.09
2017-08-31T23:48:57.008Z,90.01
2017-08-31T23:51:22.785Z,89.31
2017-08-31T23:53:48.588Z,89.89
2017-08-31T23:56:14.483Z,89.75
2017-08-31T23:58:40.243Z,90.52
